createdAt,value
2018-09-03T00:02:04.422Z,25.38
2018-09-03T00:04:29.834Z,25.37
2018-09-03T00:06:56.464Z,25.39
2018-09-03T00:09:24.933Z,25.38
2018-09-03T00:11:49.746Z,25.39
2018-09-03T00:14:16.376Z,25.42
2018-09-03T00:16:43.024Z,25.35
2018-09-03T00:19:09.679Z,25.35
2018-09-03T00:21:39.684Z,25.37
2018-09-03T00:24:06.396Z,25.31
2018-09-03T00:26:33.032Z,25.34
2018-09-03T00:29:02.607Z,25.33
2018-09-03T00:31:29.272Z,25.35
2018-09-03T00:33:55.956Z,25.28
2018-09-03T00:36:22.566Z,25.30
2018-09-03T00:38:49.226Z,25.32
2018-09-03T00:41:15.898Z,25.30
2018-09-03T00:43:42.515Z,25.28
2018-09-03T00:46:09.203Z,25.27
2018-09-03T00:48:35.860Z,25.29
2018-09-03T00:51:05.773Z,25.24
2018-09-03T00:53:32.409Z,25.26
2018-09-03T00:55:59.079Z,25.26
2018-09-03T00:58:25.692Z,25.25
2018-09-03T01:00:52.344Z,25.22
2018-09-03T01:03:18.997Z,25.23
2018-09-03T01:05:45.640Z,25.22
2018-09-03T01:08:12.316Z,25.18
2018-09-03T01:10:38.927Z,25.20
2018-09-03T01:13:05.565Z,25.21
2018-09-03T01:15:32.283Z,25.19
2018-09-03T01:17:58.956Z,25.23
2018-09-03T01:20:25.632Z,25.24
2018-09-03T01:22:52.275Z,25.22
2018-09-03T01:25:18.906Z,25.17
2018-09-03T01:27:45.609Z,25.15
2018-09-03T01:30:12.246Z,25.20
2018-09-03T01:32:39.362Z,25.16
2018-09-03T01:35:06.003Z,25.14
2018-09-03T01:37:32.710Z,25.17
2018-09-03T01:39:59.351Z,25.11
2018-09-03T01:42:25.999Z,25.16
2018-09-03T01:44:52.652Z,25.15
2018-09-03T01:47:19.293Z,25.15
2018-09-03T01:49:45.975Z,25.13
2018-09-03T01:52:12.593Z,25.10
2018-09-03T01:54:39.234Z,25.10
2018-09-03T01:57:05.885Z,25.08
2018-09-03T01:59:32.529Z,25.13
2018-09-03T02:02:00.627Z,25.10
2018-09-03T02:04:25.852Z,25.09
2018-09-03T02:06:52.544Z,25.08
2018-09-03T02:09:19.169Z,25.01
2018-09-03T02:11:45.801Z,25.04
2018-09-03T02:14:12.541Z,25.02
2018-09-03T02:16:39.147Z,25.11
2018-09-03T02:19:05.785Z,25.05
2018-09-03T02:21:32.426Z,25.04
2018-09-03T02:23:59.095Z,25.07
2018-09-03T02:26:25.842Z,25.03
2018-09-03T02:28:52.487Z,25.05
2018-09-03T02:31:19.123Z,25.06
2018-09-03T02:33:45.767Z,25.02
2018-09-03T02:36:16.772Z,25.02
2018-09-03T02:38:42.738Z,25.07
2018-09-03T02:41:09.591Z,25.03
2018-09-03T02:43:36.237Z,25.02
2018-09-03T02:46:02.875Z,24.95
2018-09-03T02:48:29.541Z,25.00
2018-09-03T02:50:56.189Z,25.01
2018-09-03T02:53:22.883Z,25.03
2018-09-03T02:55:56.302Z,24.99
2018-09-03T02:58:22.961Z,24.93
2018-09-03T03:00:49.716Z,24.95
2018-09-03T03:03:16.456Z,24.96
2018-09-03T03:05:43.096Z,24.95
2018-09-03T03:08:09.737Z,24.94
2018-09-03T03:10:36.532Z,24.98
2018-09-03T03:13:04.473Z,24.95
2018-09-03T03:15:29.807Z,24.96
2018-09-03T03:17:56.447Z,25.07
2018-09-03T03:20:23.191Z,25.02
2018-09-03T03:22:49.826Z,25.01
2018-09-03T03:25:16.565Z,25.01
2018-09-03T03:27:43.204Z,25.00
2018-09-03T03:30:09.891Z,24.97
2018-09-03T03:32:36.532Z,25.01
2018-09-03T03:35:04.380Z,25.00
2018-09-03T03:37:30.187Z,24.99
2018-09-03T03:39:56.786Z,25.01
2018-09-03T03:42:23.437Z,25.01
2018-09-03T03:44:50.174Z,24.94
2018-09-03T03:47:20.507Z,24.98
2018-09-03T03:49:47.240Z,24.99
2018-09-03T03:52:13.928Z,24.97
2018-09-03T03:54:40.567Z,25.03
2018-09-03T03:57:07.258Z,24.97
2018-09-03T03:59:35.539Z,24.98
2018-09-03T04:02:05.628Z,25.04
2018-09-03T04:04:32.341Z,25.06
2018-09-03T04:06:59.091Z,25.00
2018-09-03T04:09:25.855Z,25.00
2018-09-03T04:11:55.260Z,24.93
2018-09-03T04:14:21.936Z,24.90
2018-09-03T04:16:48.578Z,24.92
2018-09-03T04:19:15.253Z,24.95
2018-09-03T04:21:41.879Z,24.97
2018-09-03T04:24:08.575Z,24.95
2018-09-03T04:26:35.186Z,24.93
2018-09-03T04:29:01.823Z,25.03
2018-09-03T04:31:28.524Z,25.05
2018-09-03T04:33:55.393Z,25.10
2018-09-03T04:36:22.080Z,25.19
2018-09-03T04:38:51.669Z,25.24
2018-09-03T04:41:18.210Z,25.15
2018-09-03T04:43:44.866Z,25.21
2018-09-03T04:46:11.541Z,25.21
2018-09-03T04:48:38.226Z,25.23
2018-09-03T04:51:04.892Z,25.25
2018-09-03T04:53:31.545Z,25.22
2018-09-03T04:55:58.194Z,25.33
2018-09-03T04:58:26.336Z,25.30
2018-09-03T05:00:51.524Z,25.30
2018-09-03T05:03:18.147Z,25.26
2018-09-03T05:05:44.863Z,25.28
2018-09-03T05:08:11.470Z,25.40
2018-09-03T05:10:38.190Z,25.44
2018-09-03T05:13:05.000Z,25.38
2018-09-03T05:15:33.139Z,25.40
2018-09-03T05:17:58.382Z,25.37
2018-09-03T05:20:25.045Z,25.42
2018-09-03T05:22:51.726Z,25.47
2018-09-03T05:25:19.752Z,25.53
2018-09-03T05:27:45.087Z,25.57
2018-09-03T05:30:11.738Z,25.60
2018-09-03T05:32:38.424Z,25.62
2018-09-03T05:35:05.059Z,25.64
2018-09-03T05:37:31.723Z,25.61
2018-09-03T05:39:58.431Z,25.65
2018-09-03T05:42:25.168Z,25.71
2018-09-03T05:44:51.820Z,25.81
2018-09-03T05:47:18.487Z,25.89
2018-09-03T05:49:45.252Z,25.94
2018-09-03T05:52:11.906Z,25.98
2018-09-03T05:54:38.704Z,26.02
2018-09-03T05:57:05.393Z,25.96
2018-09-03T05:59:32.161Z,25.78
2018-09-03T06:01:58.801Z,25.65
2018-09-03T06:04:25.446Z,25.80
2018-09-03T06:06:52.095Z,25.98
2018-09-03T06:09:18.738Z,25.98
2018-09-03T06:11:45.441Z,26.09
2018-09-03T06:14:12.096Z,26.06
2018-09-03T06:16:38.867Z,26.18
2018-09-03T06:19:06.880Z,25.71
2018-09-03T06:21:32.155Z,25.68
2018-09-03T06:24:03.663Z,25.46
2018-09-03T06:26:25.672Z,25.53
2018-09-03T06:28:52.309Z,25.73
2018-09-03T06:31:18.984Z,25.88
2018-09-03T06:33:45.620Z,25.97
2018-09-03T06:36:12.262Z,26.06
2018-09-03T06:38:39.054Z,26.04
2018-09-03T06:41:08.409Z,26.12
2018-09-03T06:43:36.595Z,25.57
2018-09-03T06:46:01.830Z,25.60
2018-09-03T06:48:28.531Z,25.65
2018-09-03T06:50:55.289Z,25.91
2018-09-03T06:53:22.026Z,26.00
2018-09-03T06:55:48.703Z,26.08
2018-09-03T06:58:15.445Z,25.86
2018-09-03T07:00:42.098Z,25.71
2018-09-03T07:03:08.793Z,25.76
2018-09-03T07:05:35.516Z,26.03
2018-09-03T07:08:02.185Z,26.10
2018-09-03T07:10:28.968Z,26.17
2018-09-03T07:12:55.704Z,25.77
2018-09-03T07:15:22.387Z,25.63
2018-09-03T07:17:49.045Z,25.78
2018-09-03T07:20:15.699Z,25.90
2018-09-03T07:22:42.458Z,25.86
2018-09-03T07:25:09.171Z,25.86
2018-09-03T07:27:38.238Z,25.92
2018-09-03T07:30:02.683Z,25.99
2018-09-03T07:32:29.408Z,26.18
2018-09-03T07:34:56.052Z,26.26
2018-09-03T07:37:22.705Z,26.25
2018-09-03T07:39:49.435Z,26.13
2018-09-03T07:42:17.412Z,26.00
2018-09-03T07:44:42.810Z,26.10
2018-09-03T07:47:09.451Z,26.01
2018-09-03T07:49:36.149Z,26.04
2018-09-03T07:52:08.031Z,25.83
2018-09-03T07:54:36.106Z,25.90
2018-09-03T07:57:01.388Z,25.82
2018-09-03T07:59:28.095Z,25.87
2018-09-03T08:01:54.791Z,26.13
2018-09-03T08:04:21.482Z,26.22
2018-09-03T08:06:49.222Z,26.34
2018-09-03T08:09:15.944Z,26.33
2018-09-03T08:11:42.594Z,26.27
2018-09-03T08:14:09.355Z,26.36
2018-09-03T08:16:36.125Z,26.08
2018-09-03T08:19:02.849Z,25.97
2018-09-03T08:21:29.552Z,25.70
2018-09-03T08:23:56.270Z,25.70
2018-09-03T08:26:22.950Z,25.76
2018-09-03T08:28:49.615Z,25.75
2018-09-03T08:31:16.301Z,25.74
2018-09-03T08:33:42.936Z,25.84
2018-09-03T08:36:09.637Z,25.91
2018-09-03T08:38:36.271Z,25.86
2018-09-03T08:41:03.016Z,25.86
2018-09-03T08:43:29.693Z,26.09
2018-09-03T08:45:56.338Z,26.16
2018-09-03T08:48:23.125Z,26.05
2018-09-03T08:50:49.785Z,25.78
2018-09-03T08:53:16.489Z,25.58
2018-09-03T08:55:43.152Z,25.39
2018-09-03T08:58:09.880Z,25.41
2018-09-03T09:00:36.671Z,25.29
2018-09-03T09:03:03.346Z,25.39
2018-09-03T09:05:30.077Z,25.33
2018-09-03T09:07:56.724Z,25.28
2018-09-03T09:10:23.413Z,24.98
2018-09-03T09:12:50.195Z,25.73
2018-09-03T09:15:17.114Z,25.87
2018-09-03T09:17:43.785Z,26.05
2018-09-03T09:20:10.519Z,26.21
2018-09-03T09:22:40.407Z,26.35
2018-09-03T09:25:07.132Z,26.40
2018-09-03T09:27:34.046Z,26.42
2018-09-03T09:30:00.813Z,26.01
2018-09-03T09:32:27.465Z,25.87
2018-09-03T09:34:55.894Z,25.68
2018-09-03T09:37:20.803Z,25.66
2018-09-03T09:39:47.489Z,25.72
2018-09-03T09:42:14.347Z,25.62
2018-09-03T09:44:41.020Z,25.39
2018-09-03T09:47:07.723Z,25.53
2018-09-03T09:49:34.367Z,25.43
2018-09-03T09:52:01.063Z,25.42
2018-09-03T09:54:27.805Z,25.36
2018-09-03T09:56:54.482Z,25.40
2018-09-03T09:59:23.360Z,25.58
2018-09-03T10:01:50.033Z,25.85
2018-09-03T10:04:16.732Z,25.92
2018-09-03T10:06:43.413Z,26.08
2018-09-03T10:09:10.063Z,25.84
2018-09-03T10:11:36.707Z,25.40
2018-09-03T10:14:03.431Z,25.38
2018-09-03T10:16:30.079Z,25.48
2018-09-03T10:18:56.945Z,25.49
2018-09-03T10:21:23.685Z,25.48
2018-09-03T10:23:52.488Z,25.52
2018-09-03T10:26:17.099Z,25.46
2018-09-03T10:28:43.701Z,25.63
2018-09-03T10:31:10.413Z,25.59
2018-09-03T10:33:37.138Z,25.61
2018-09-03T10:36:03.783Z,25.57
2018-09-03T10:38:31.439Z,25.56
2018-09-03T10:40:58.100Z,25.41
2018-09-03T10:43:24.775Z,25.22
2018-09-03T10:45:51.422Z,25.49
2018-09-03T10:48:18.134Z,25.47
2018-09-03T10:50:44.790Z,25.39
2018-09-03T10:53:12.678Z,25.52
2018-09-03T10:55:40.299Z,25.36
2018-09-03T10:58:06.998Z,25.38
2018-09-03T11:00:33.713Z,25.37
2018-09-03T11:03:00.360Z,25.41
2018-09-03T11:05:27.120Z,25.48
2018-09-03T11:07:56.619Z,25.40
2018-09-03T11:10:23.264Z,25.34
2018-09-03T11:12:49.948Z,25.29
2018-09-03T11:15:16.609Z,25.24
2018-09-03T11:17:46.228Z,25.26
2018-09-03T11:20:12.878Z,25.25
2018-09-03T11:22:39.616Z,25.40
2018-09-03T11:25:06.275Z,25.33
2018-09-03T11:27:33.019Z,25.32
2018-09-03T11:29:59.838Z,25.40
2018-09-03T11:32:26.532Z,25.45
2018-09-03T11:34:53.299Z,25.25
2018-09-03T11:37:23.074Z,25.26
2018-09-03T11:39:49.781Z,25.25
2018-09-03T11:42:19.679Z,25.34
2018-09-03T11:44:46.330Z,25.30
2018-09-03T11:47:13.075Z,25.35
2018-09-03T11:49:39.742Z,25.58
2018-09-03T11:52:06.421Z,25.28
2018-09-03T11:54:35.281Z,25.30
2018-09-03T11:57:03.160Z,25.23
2018-09-03T11:59:28.655Z,25.36
2018-09-03T12:01:55.389Z,25.26
2018-09-03T12:04:22.112Z,25.32
2018-09-03T12:06:48.817Z,25.09
2018-09-03T12:09:15.414Z,25.03
2018-09-03T12:11:42.055Z,24.85
2018-09-03T12:14:08.702Z,24.93
2018-09-03T12:16:35.377Z,24.81
2018-09-03T12:19:04.277Z,24.96
2018-09-03T12:21:30.959Z,24.73
2018-09-03T12:24:00.837Z,24.77
2018-09-03T12:26:27.463Z,24.97
2018-09-03T12:28:54.090Z,24.89
2018-09-03T12:31:22.537Z,24.77
2018-09-03T12:33:47.636Z,24.89
2018-09-03T12:36:14.274Z,25.39
2018-09-03T12:38:40.941Z,25.45
2018-09-03T12:41:07.592Z,25.62
2018-09-03T12:43:34.242Z,25.78
2018-09-03T12:46:00.991Z,25.74
2018-09-03T12:48:27.534Z,25.81
2018-09-03T12:50:54.272Z,25.96
2018-09-03T12:53:22.244Z,26.03
2018-09-03T12:55:47.573Z,26.05
2018-09-03T12:58:14.311Z,26.19
2018-09-03T13:00:40.987Z,25.97
2018-09-03T13:03:08.655Z,25.97
2018-09-03T13:05:35.294Z,25.95
2018-09-03T13:08:01.986Z,26.03
2018-09-03T13:10:28.676Z,26.19
2018-09-03T13:12:56.783Z,26.12
2018-09-03T13:15:21.981Z,25.88
2018-09-03T13:17:48.722Z,25.67
2018-09-03T13:20:15.361Z,25.40
2018-09-03T13:22:42.112Z,25.41
2018-09-03T13:25:09.845Z,25.24
2018-09-03T13:27:35.442Z,25.43
2018-09-03T13:30:02.085Z,25.60
2018-09-03T13:32:28.762Z,25.42
2018-09-03T13:34:55.428Z,25.30
2018-09-03T13:37:22.072Z,25.42
2018-09-03T13:39:48.824Z,25.25
2018-09-03T13:42:15.559Z,25.12
2018-09-03T13:44:42.272Z,25.53
2018-09-03T13:47:16.519Z,25.76
2018-09-03T13:49:41.916Z,25.86
2018-09-03T13:52:08.625Z,25.89
2018-09-03T13:54:35.306Z,25.94
2018-09-03T13:57:01.986Z,26.02
2018-09-03T13:59:28.785Z,25.99
2018-09-03T14:01:55.524Z,26.10
2018-09-03T14:04:22.183Z,26.06
2018-09-03T14:06:48.877Z,25.86
2018-09-03T14:09:15.502Z,26.06
2018-09-03T14:11:42.289Z,25.97
2018-09-03T14:14:10.036Z,26.01
2018-09-03T14:16:35.716Z,26.07
2018-09-03T14:19:02.375Z,26.19
2018-09-03T14:21:29.076Z,26.23
2018-09-03T14:23:55.837Z,26.29
2018-09-03T14:26:22.619Z,26.30
2018-09-03T14:28:51.717Z,26.35
2018-09-03T14:31:18.321Z,26.26
2018-09-03T14:33:45.010Z,25.96
2018-09-03T14:36:11.666Z,26.05
2018-09-03T14:38:38.321Z,26.15
2018-09-03T14:41:04.959Z,26.13
2018-09-03T14:43:31.618Z,26.09
2018-09-03T14:45:58.290Z,26.17
2018-09-03T14:48:28.163Z,26.33
2018-09-03T14:50:54.830Z,26.34
2018-09-03T14:53:21.740Z,26.35
2018-09-03T14:55:48.477Z,26.37
2018-09-03T14:58:15.185Z,26.41
2018-09-03T15:00:44.630Z,26.40
2018-09-03T15:03:11.308Z,26.31
2018-09-03T15:05:37.945Z,26.13
2018-09-03T15:08:04.640Z,26.02
2018-09-03T15:10:31.248Z,26.16
2018-09-03T15:12:57.978Z,26.19
2018-09-03T15:15:24.625Z,26.20
2018-09-03T15:17:51.294Z,26.12
2018-09-03T15:20:18.859Z,26.21
2018-09-03T15:22:45.549Z,26.31
2018-09-03T15:25:12.211Z,26.32
2018-09-03T15:27:38.857Z,26.39
2018-09-03T15:30:05.509Z,26.43
2018-09-03T15:32:32.246Z,26.43
2018-09-03T15:34:58.898Z,26.45
2018-09-03T15:37:25.596Z,26.46
2018-09-03T15:39:52.292Z,26.44
2018-09-03T15:42:19.031Z,26.47
2018-09-03T15:44:45.759Z,26.47
2018-09-03T15:47:12.445Z,26.51
2018-09-03T15:49:39.100Z,26.24
2018-09-03T15:52:05.886Z,26.06
2018-09-03T15:54:33.745Z,26.11
2018-09-03T15:56:59.267Z,26.22
2018-09-03T15:59:25.918Z,26.24
2018-09-03T16:01:52.548Z,26.11
2018-09-03T16:04:19.293Z,26.20
2018-09-03T16:06:45.932Z,26.29
2018-09-03T16:09:12.701Z,26.33
2018-09-03T16:11:39.264Z,26.39
2018-09-03T16:14:05.945Z,26.40
2018-09-03T16:16:32.560Z,26.30
2018-09-03T16:18:59.310Z,26.33
2018-09-03T16:21:25.992Z,26.36
2018-09-03T16:23:52.688Z,26.33
2018-09-03T16:26:19.402Z,26.33
2018-09-03T16:28:46.043Z,26.32
2018-09-03T16:31:12.681Z,26.34
2018-09-03T16:33:39.388Z,26.33
2018-09-03T16:36:06.031Z,26.32
2018-09-03T16:38:32.702Z,26.33
2018-09-03T16:40:59.391Z,26.39
2018-09-03T16:43:26.050Z,26.27
2018-09-03T16:45:52.766Z,26.27
2018-09-03T16:48:19.483Z,26.33
2018-09-03T16:50:46.132Z,26.25
2018-09-03T16:53:12.823Z,26.23
2018-09-03T16:55:39.437Z,26.15
2018-09-03T16:58:06.076Z,26.12
2018-09-03T17:00:32.725Z,26.15
2018-09-03T17:02:59.375Z,26.21
2018-09-03T17:05:26.073Z,26.16
2018-09-03T17:07:52.768Z,26.20
2018-09-03T17:10:19.392Z,26.12
2018-09-03T17:12:48.539Z,26.14
2018-09-03T17:15:13.151Z,26.10
2018-09-03T17:17:41.833Z,26.15
2018-09-03T17:20:06.444Z,26.23
2018-09-03T17:22:33.121Z,26.19
2018-09-03T17:25:00.743Z,26.11
2018-09-03T17:27:27.446Z,26.18
2018-09-03T17:29:54.082Z,26.19
2018-09-03T17:32:20.740Z,26.06
2018-09-03T17:34:47.430Z,26.08
2018-09-03T17:37:16.871Z,26.19
2018-09-03T17:39:43.555Z,26.07
2018-09-03T17:42:11.215Z,26.13
2018-09-03T17:44:37.907Z,26.19
2018-09-03T17:47:04.597Z,26.12
2018-09-03T17:49:31.336Z,26.13
2018-09-03T17:51:57.922Z,26.14
2018-09-03T17:54:24.564Z,26.13
2018-09-03T17:56:51.220Z,26.08
2018-09-03T17:59:17.867Z,26.06
2018-09-03T18:01:44.576Z,26.08
2018-09-03T18:04:11.260Z,26.01
2018-09-03T18:06:37.898Z,25.97
2018-09-03T18:09:06.510Z,26.00
2018-09-03T18:11:31.200Z,25.98
2018-09-03T18:13:57.905Z,25.94
2018-09-03T18:16:24.749Z,25.94
2018-09-03T18:18:51.339Z,25.97
2018-09-03T18:21:18.078Z,25.98
2018-09-03T18:23:44.714Z,25.95
2018-09-03T18:26:11.397Z,25.92
2018-09-03T18:28:38.047Z,25.94
2018-09-03T18:31:04.720Z,25.97
2018-09-03T18:33:31.475Z,25.93
2018-09-03T18:35:58.174Z,25.92
2018-09-03T18:38:24.807Z,25.82
2018-09-03T18:40:51.555Z,25.89
2018-09-03T18:43:18.207Z,25.86
2018-09-03T18:45:44.932Z,25.85
2018-09-03T18:48:11.537Z,25.86
2018-09-03T18:50:38.251Z,25.87
2018-09-03T18:53:04.998Z,25.86
2018-09-03T18:55:31.690Z,25.85
2018-09-03T18:57:58.349Z,25.85
2018-09-03T19:00:26.428Z,25.82
2018-09-03T19:02:51.726Z,25.85
2018-09-03T19:05:18.446Z,25.87
2018-09-03T19:07:45.153Z,25.83
2018-09-03T19:10:11.817Z,25.80
2018-09-03T19:12:38.523Z,25.84
2018-09-03T19:15:05.153Z,25.85
2018-09-03T19:17:31.794Z,25.81
2018-09-03T19:19:58.537Z,25.84
2018-09-03T19:22:26.899Z,25.79
2018-09-03T19:24:53.563Z,25.79
2018-09-03T19:27:20.267Z,25.79
2018-09-03T19:29:46.940Z,25.80
2018-09-03T19:32:13.542Z,25.77
2018-09-03T19:34:40.191Z,25.76
2018-09-03T19:37:06.830Z,25.76
2018-09-03T19:39:33.598Z,25.74
2018-09-03T19:42:01.640Z,25.76
2018-09-03T19:44:28.210Z,25.75
2018-09-03T19:46:53.622Z,25.74
2018-09-03T19:49:20.270Z,25.76
2018-09-03T19:51:46.916Z,25.78
2018-09-03T19:54:13.686Z,25.71
2018-09-03T19:56:40.340Z,25.69
2018-09-03T19:59:07.024Z,25.71
2018-09-03T20:01:33.671Z,25.69
2018-09-03T20:04:00.402Z,25.66
2018-09-03T20:06:27.072Z,25.71
2018-09-03T20:08:53.729Z,25.67
2018-09-03T20:11:20.361Z,25.69
2018-09-03T20:13:48.512Z,25.69
2018-09-03T20:16:13.701Z,25.67
2018-09-03T20:18:40.339Z,25.68
2018-09-03T20:21:07.072Z,25.67
2018-09-03T20:23:36.321Z,25.66
2018-09-03T20:26:02.851Z,25.68
2018-09-03T20:28:29.543Z,25.68
2018-09-03T20:30:56.224Z,25.65
2018-09-03T20:33:22.988Z,25.68
2018-09-03T20:35:49.669Z,25.68
2018-09-03T20:38:16.309Z,25.64
2018-09-03T20:40:43.036Z,25.65
2018-09-03T20:45:08.083Z,25.63
2018-09-03T20:47:34.823Z,25.64
2018-09-03T20:50:04.302Z,25.65
2018-09-03T20:52:30.989Z,25.62
2018-09-03T20:54:57.709Z,25.65
2018-09-03T20:57:24.384Z,25.64
2018-09-03T20:59:51.048Z,25.63
2018-09-03T21:02:17.789Z,25.63
2018-09-03T21:04:44.427Z,25.63
2018-09-03T21:07:11.347Z,25.58
2018-09-03T21:09:38.144Z,25.60
2018-09-03T21:12:04.826Z,25.60
2018-09-03T21:14:31.456Z,25.59
2018-09-03T21:16:58.111Z,25.59
2018-09-03T21:19:24.829Z,25.57
2018-09-03T21:21:51.542Z,25.54
2018-09-03T21:24:18.098Z,25.56
2018-09-03T21:26:44.807Z,25.60
2018-09-03T21:29:12.774Z,25.54
2018-09-03T21:31:38.087Z,25.52
2018-09-03T21:34:04.811Z,25.58
2018-09-03T21:36:31.477Z,25.53
2018-09-03T21:38:58.099Z,25.58
2018-09-03T21:41:24.784Z,25.53
2018-09-03T21:43:51.497Z,25.51
2018-09-03T21:46:18.221Z,25.51
2018-09-03T21:48:45.130Z,25.55
2018-09-03T21:51:11.732Z,25.55
2018-09-03T21:53:38.369Z,25.52
2018-09-03T21:56:05.031Z,25.57
2018-09-03T21:58:31.716Z,25.48
2018-09-03T22:00:58.355Z,25.51
2018-09-03T22:03:25.000Z,25.50
2018-09-03T22:05:51.666Z,25.44
2018-09-03T22:08:18.284Z,25.45
2018-09-03T22:10:46.267Z,25.41
2018-09-03T22:13:12.753Z,25.42
2018-09-03T22:15:38.204Z,25.37
2018-09-03T22:18:04.898Z,25.46
2018-09-03T22:20:31.528Z,25.37
2018-09-03T22:22:58.165Z,25.37
2018-09-03T22:25:24.884Z,25.35
2018-09-03T22:27:51.571Z,25.41
2018-09-03T22:30:18.252Z,25.40
2018-09-03T22:32:44.950Z,25.41
2018-09-03T22:35:11.639Z,25.42
2018-09-03T22:37:38.284Z,25.43
2018-09-03T22:40:06.998Z,25.42
2018-09-03T22:42:33.651Z,25.41
2018-09-03T22:45:00.323Z,25.40
2018-09-03T22:47:27.010Z,25.39
2018-09-03T22:49:53.622Z,25.41
2018-09-03T22:52:20.293Z,25.41
2018-09-03T22:54:46.983Z,25.37
2018-09-03T22:57:13.718Z,25.37
2018-09-03T22:59:40.356Z,25.39
2018-09-03T23:02:07.032Z,25.31
2018-09-03T23:04:33.666Z,25.35
2018-09-03T23:07:00.306Z,25.36
2018-09-03T23:09:26.962Z,25.39
2018-09-03T23:11:53.644Z,25.32
2018-09-03T23:14:21.743Z,25.38
2018-09-03T23:16:47.058Z,25.36
2018-09-03T23:19:14.576Z,25.37
2018-09-03T23:21:41.267Z,25.36
2018-09-03T23:24:07.955Z,25.37
2018-09-03T23:26:34.914Z,25.33
2018-09-03T23:29:06.315Z,25.30
2018-09-03T23:31:28.277Z,25.33
2018-09-03T23:33:55.043Z,25.26
2018-09-03T23:36:21.763Z,25.28
2018-09-03T23:38:48.385Z,25.29
2018-09-03T23:41:15.107Z,25.31
2018-09-03T23:43:41.909Z,25.30
2018-09-03T23:46:08.619Z,25.29
2018-09-03T23:48:35.273Z,25.28
2018-09-03T23:51:01.999Z,25.28
2018-09-03T23:53:31.612Z,25.29
2018-09-03T23:55:58.405Z,25.29
2018-09-03T23:58:25.677Z,25.25
